Time;durP1;ratioP1;P1;durP2;ratioP2;P2;SDS_P1;SDS_P2;PMS_P1;PMS_P2;Temp;Humidity;BMP_temperature;BMP_pressure;BME280_temperature;BME280_humidity;BME280_pressure;Samples;Min_cycle;Max_cycle;Signal;HPM_P1;HPM_P2
2024/02/23 00:03:51;;;;;;;3.90;1.30;;;;;;;12.11;52.38;97127.42;231975;199;137553;-64
2024/02/23 00:08:55;;;;;;;3.40;1.20;;;;;;;12.09;52.41;97125.60;231739;201;156136;-64
2024/02/23 00:13:58;;;;;;;1.70;1.30;;;;;;;12.11;52.46;97116.38;231701;205;137564;-65
2024/02/23 00:19:01;;;;;;;1.70;1.20;;;;;;;12.14;52.52;97108.95;231859;201;138255;-65
2024/02/23 00:24:05;;;;;;;3.50;1.30;;;;;;;12.15;52.62;97115.92;231917;204;152562;-65
2024/02/23 00:29:09;;;;;;;1.90;1.20;;;;;;;12.15;52.60;97124.63;231904;202;138552;-65
2024/02/23 00:34:13;;;;;;;2.10;1.20;;;;;;;12.11;52.75;97118.48;231789;198;137877;-65
2024/02/23 00:39:16;;;;;;;1.40;1.00;;;;;;;12.14;52.85;97115.38;231773;198;154284;-65
2024/02/23 00:44:20;;;;;;;1.60;1.00;;;;;;;12.19;52.86;97112.22;231855;204;137930;-65
2024/02/23 00:49:23;;;;;;;2.20;0.90;;;;;;;12.21;52.90;97113.91;231825;197;137451;-65
2024/02/23 00:54:26;;;;;;;1.60;1.00;;;;;;;12.20;53.18;97113.31;231790;202;153281;-65
2024/02/23 00:59:29;;;;;;;2.10;1.20;;;;;;;12.15;53.81;97117.36;231997;197;136930;-65
2024/02/23 01:04:33;;;;;;;2.30;1.10;;;;;;;12.07;54.74;97114.64;231870;198;138345;-65
2024/02/23 01:09:36;;;;;;;4.40;1.60;;;;;;;11.95;55.64;97105.33;231779;198;154080;-66
2024/02/23 01:14:39;;;;;;;1.90;1.20;;;;;;;11.81;56.59;97100.95;231772;197;138386;-65
2024/02/23 01:19:44;;;;;;;2.30;1.20;;;;;;;11.71;57.60;97113.34;231583;202;138230;-64
2024/02/23 01:24:47;;;;;;;2.10;1.20;;;;;;;11.61;58.42;97110.57;231758;198;154132;-64
2024/02/23 01:29:51;;;;;;;2.60;1.40;;;;;;;11.49;59.10;97108.52;231766;204;137701;-65
2024/02/23 01:34:54;;;;;;;2.60;1.30;;;;;;;11.41;60.41;97110.77;232100;203;138608;-63
2024/02/23 01:39:59;;;;;;;2.90;1.60;;;;;;;11.32;61.52;97100.77;231906;201;153279;-64
2024/02/23 01:45:03;;;;;;;1.60;1.40;;;;;;;11.37;59.77;97095.00;231925;205;138247;-64
2024/02/23 01:50:08;;;;;;;2.70;1.70;;;;;;;11.48;59.17;97085.55;231935;202;138370;-64
2024/02/23 01:55:12;;;;;;;2.60;1.80;;;;;;;11.60;58.85;97088.95;231989;197;152375;-63
2024/02/23 02:00:17;;;;;;;2.20;1.60;;;;;;;11.68;58.85;97081.84;231833;198;137696;-64
2024/02/23 02:05:26;;;;;;;3.00;1.70;;;;;;;11.75;58.80;97075.02;231905;198;137527;-64
2024/02/23 02:10:29;;;;;;;3.00;1.90;;;;;;;11.81;58.66;97077.70;232166;204;153713;-65
2024/02/23 02:15:32;;;;;;;3.50;2.20;;;;;;;11.83;58.47;97078.19;231835;197;138322;-67
2024/02/23 02:20:37;;;;;;;3.10;2.00;;;;;;;11.86;58.26;97073.67;232029;198;138791;-66
2024/02/23 02:25:40;;;;;;;2.90;1.80;;;;;;;11.82;57.93;97075.77;231981;204;153085;-65
2024/02/23 02:30:43;;;;;;;3.00;1.90;;;;;;;11.81;58.00;97084.98;231897;198;138070;-65
2024/02/23 02:35:47;;;;;;;3.30;1.80;;;;;;;11.82;57.92;97084.39;231805;199;138171;-69
2024/02/23 02:40:50;;;;;;;2.00;1.60;;;;;;;11.87;57.86;97088.36;232025;199;154630;-66
2024/02/23 02:45:54;;;;;;;3.70;2.00;;;;;;;11.87;57.86;97092.73;231903;198;138979;-63
2024/02/23 02:50:57;;;;;;;4.50;2.40;;;;;;;11.90;57.74;97089.33;231874;198;137570;-62
2024/02/23 02:56:00;;;;;;;3.00;2.30;;;;;;;11.87;57.67;97092.96;231820;205;154303;-62
2024/02/23 03:01:04;;;;;;;3.40;2.20;;;;;;;11.86;57.66;97090.41;231943;204;138200;-63
2024/02/23 03:06:07;;;;;;;3.60;2.20;;;;;;;11.90;57.52;97090.69;232011;201;137906;-61
2024/02/23 03:11:12;;;;;;;6.70;2.30;;;;;;;11.94;57.31;97090.13;231937;198;152965;-63
2024/02/23 03:16:18;;;;;;;3.80;2.30;;;;;;;11.95;57.32;97088.05;231905;198;139190;-63
2024/02/23 03:21:22;;;;;;;3.60;2.50;;;;;;;11.98;57.18;97081.41;231814;205;138216;-61
2024/02/23 03:26:25;;;;;;;3.40;1.80;;;;;;;11.99;56.79;97077.55;231793;205;153231;-62
2024/02/23 03:31:28;;;;;;;3.20;2.00;;;;;;;11.96;56.69;97080.65;231807;198;137658;-61
2024/02/23 03:36:32;;;;;;;3.50;2.10;;;;;;;11.95;56.54;97079.88;231839;205;137461;-63
2024/02/23 03:41:35;;;;;;;2.90;1.70;;;;;;;11.96;56.33;97084.59;231876;204;153018;-62
2024/02/23 03:46:38;;;;;;;3.10;2.10;;;;;;;11.95;56.17;97087.70;231967;204;141198;-61
2024/02/23 03:51:41;;;;;;;3.50;2.00;;;;;;;11.99;56.07;97091.39;231864;197;137736;-62
2024/02/23 03:56:45;;;;;;;2.20;1.80;;;;;;;11.98;55.75;97097.85;231724;198;153483;-62
2024/02/23 04:01:48;;;;;;;2.70;2.00;;;;;;;12.02;55.58;97106.24;231944;201;138398;-60
2024/02/23 04:06:51;;;;;;;2.70;1.90;;;;;;;12.05;55.43;97115.49;231881;202;139695;-61
2024/02/23 04:11:54;;;;;;;2.80;1.60;;;;;;;12.07;55.22;97122.29;231788;201;154035;-61
2024/02/23 04:16:57;;;;;;;4.70;1.90;;;;;;;12.11;55.50;97128.85;231895;204;138556;-62
2024/02/23 04:22:01;;;;;;;5.10;2.20;;;;;;;12.12;55.34;97127.42;231904;201;137852;-63
2024/02/23 04:27:05;;;;;;;59.40;50.50;;;;;;;12.15;56.53;97127.71;231814;198;153259;-62
2024/02/23 04:32:08;;;;;;;2.80;2.30;;;;;;;12.18;56.09;97129.64;231765;205;141537;-62
2024/02/23 04:37:12;;;;;;;122.10;102.20;;;;;;;12.20;56.32;97133.20;231851;205;137666;-63
2024/02/23 04:42:15;;;;;;;6.70;4.20;;;;;;;12.22;56.84;97139.56;231759;205;153814;-62
2024/02/23 04:47:18;;;;;;;2.70;2.00;;;;;;;12.21;56.64;97144.45;231841;198;138147;-62
2024/02/23 04:52:22;;;;;;;2.60;1.80;;;;;;;12.18;56.68;97146.81;232054;204;139378;-60
2024/02/23 04:57:25;;;;;;;3.80;2.00;;;;;;;12.14;57.74;97149.34;231861;198;154169;-62
2024/02/23 05:02:33;;;;;;;184.60;155.10;;;;;;;12.05;59.10;97153.16;231922;201;137432;-65
2024/02/23 05:07:37;;;;;;;11.10;7.60;;;;;;;11.94;60.22;97162.25;231968;205;138991;-62
2024/02/23 05:12:40;;;;;;;6.30;3.10;;;;;;;11.90;60.62;97164.80;231951;198;153118;-66
2024/02/23 05:17:43;;;;;;;8.30;2.50;;;;;;;11.74;61.32;97167.77;231871;201;138236;-66
2024/02/23 05:22:47;;;;;;;5.00;2.80;;;;;;;11.62;61.97;97170.52;231999;198;138092;-68
2024/02/23 05:27:51;;;;;;;4.10;3.00;;;;;;;11.53;62.56;97179.67;231999;205;154692;-68
2024/02/23 05:32:55;;;;;;;7.80;3.60;;;;;;;11.51;63.84;97192.16;231742;201;137330;-66
2024/02/23 05:37:58;;;;;;;5.90;3.20;;;;;;;11.48;63.79;97199.16;231886;198;138995;-66
2024/02/23 05:43:02;;;;;;;6.60;3.20;;;;;;;11.40;64.25;97208.16;231719;198;154206;-66
2024/02/23 05:48:06;;;;;;;5.10;3.20;;;;;;;11.34;64.78;97216.67;231864;198;138619;-64
2024/02/23 05:53:10;;;;;;;7.30;3.10;;;;;;;11.33;65.36;97225.98;231944;198;138413;-65
2024/02/23 05:58:13;;;;;;;6.20;3.30;;;;;;;11.36;65.88;97231.18;231967;201;153211;-65
2024/02/23 06:03:18;;;;;;;6.80;3.30;;;;;;;11.37;66.38;97238.39;231785;198;140660;-64
2024/02/23 06:08:21;;;;;;;6.30;3.20;;;;;;;11.38;66.66;97248.43;231737;201;138155;-65
2024/02/23 06:13:25;;;;;;;10.60;3.40;;;;;;;11.37;67.05;97254.40;231797;201;154727;-61
2024/02/23 06:18:28;;;;;;;6.90;3.90;;;;;;;11.33;67.40;97249.28;231901;205;138198;-62
2024/02/23 06:23:31;;;;;;;7.30;3.60;;;;;;;11.29;67.78;97258.51;231908;201;138687;-62
2024/02/23 06:28:37;;;;;;;4.90;3.10;;;;;;;11.24;68.17;97273.95;231959;198;153727;-63
2024/02/23 06:33:40;;;;;;;11.10;4.20;;;;;;;11.18;68.70;97279.30;231801;199;138416;-64
2024/02/23 06:38:45;;;;;;;7.70;3.60;;;;;;;11.16;69.29;97285.46;231837;198;138085;-63
2024/02/23 06:43:48;;;;;;;8.20;3.50;;;;;;;11.22;69.61;97300.20;231766;204;153322;-63
2024/02/23 06:48:51;;;;;;;8.40;3.70;;;;;;;11.30;69.79;97308.49;231856;197;139013;-64
2024/02/23 06:53:56;;;;;;;11.10;4.30;;;;;;;11.39;70.04;97306.96;231917;204;139205;-64
2024/02/23 06:58:59;;;;;;;9.90;4.30;;;;;;;11.45;70.42;97306.77;231929;201;152044;-61
2024/02/23 07:04:03;;;;;;;84.20;74.50;;;;;;;11.52;70.66;97319.16;231811;201;137380;-63
2024/02/23 07:09:06;;;;;;;18.50;12.20;;;;;;;11.58;71.27;97326.80;231905;199;138679;-59
2024/02/23 07:14:09;;;;;;;13.40;8.50;;;;;;;11.66;71.80;97329.64;231866;205;152961;-60
2024/02/23 07:19:13;;;;;;;12.90;4.40;;;;;;;11.80;71.32;97330.96;231733;205;138537;-60
2024/02/23 07:24:17;;;;;;;13.00;3.80;;;;;;;11.74;70.64;97335.56;231838;204;141284;-60
2024/02/23 07:29:20;;;;;;;7.30;3.80;;;;;;;11.77;70.74;97344.70;231774;202;154863;-60
2024/02/23 07:34:24;;;;;;;11.90;3.60;;;;;;;11.90;70.67;97349.29;231815;201;138445;-62
2024/02/23 07:39:27;;;;;;;9.20;3.80;;;;;;;11.89;70.67;97356.86;231805;198;137228;-58
2024/02/23 07:44:30;;;;;;;6.90;3.90;;;;;;;11.86;70.44;97370.41;231830;204;153367;-59
2024/02/23 07:49:34;;;;;;;12.50;6.30;;;;;;;11.84;70.57;97373.61;231684;198;137860;-58
2024/02/23 07:54:37;;;;;;;11.80;3.80;;;;;;;11.87;69.44;97382.43;231907;205;138197;-60
2024/02/23 07:59:41;;;;;;;5.30;3.10;;;;;;;11.86;69.15;97389.84;231517;198;152956;-58
2024/02/23 08:04:47;;;;;;;6.90;3.00;;;;;;;11.82;68.37;97399.88;231663;198;139186;-60
2024/02/23 08:09:51;;;;;;;6.30;3.20;;;;;;;11.81;68.15;97405.13;231912;204;138732;-58
2024/02/23 08:14:55;;;;;;;5.40;3.20;;;;;;;11.77;67.83;97406.77;231788;202;155759;-60
2024/02/23 08:19:58;;;;;;;6.30;3.10;;;;;;;11.77;67.94;97406.93;231758;198;136945;-58
2024/02/23 08:25:02;;;;;;;8.00;3.10;;;;;;;11.75;68.38;97411.70;231800;202;138402;-58
2024/02/23 08:30:06;;;;;;;9.20;3.50;;;;;;;11.75;68.67;97413.56;231846;205;154431;-59
2024/02/23 08:35:10;;;;;;;8.20;2.60;;;;;;;11.74;68.48;97423.06;231987;198;138145;-58
2024/02/23 08:40:13;;;;;;;4.10;2.20;;;;;;;11.75;68.46;97420.83;231745;201;138927;-58
2024/02/23 08:45:16;;;;;;;6.30;3.30;;;;;;;11.72;68.72;97425.04;231923;202;153213;-56
2024/02/23 08:50:20;;;;;;;4.50;2.80;;;;;;;11.69;69.05;97433.98;231864;205;137925;-58
2024/02/23 08:55:23;;;;;;;6.30;2.90;;;;;;;11.65;69.08;97440.02;231768;198;137932;-57
2024/02/23 09:00:26;;;;;;;5.40;3.00;;;;;;;11.60;69.35;97443.50;231857;204;153708;-58
2024/02/23 09:05:29;;;;;;;5.70;2.60;;;;;;;11.60;69.49;97445.27;231798;205;138131;-57
2024/02/23 09:10:33;;;;;;;4.90;2.80;;;;;;;11.62;69.74;97453.80;232048;201;137766;-57
2024/02/23 09:15:37;;;;;;;4.00;2.60;;;;;;;11.64;69.34;97459.11;231845;198;153174;-58
2024/02/23 09:20:40;;;;;;;5.50;2.90;;;;;;;11.66;69.14;97467.81;231851;202;138447;-57
2024/02/23 09:25:43;;;;;;;17.40;12.30;;;;;;;11.66;69.01;97466.30;231879;198;137456;-57
2024/02/23 09:30:46;;;;;;;12.10;6.00;;;;;;;11.76;70.19;97460.38;231760;205;153213;-56
2024/02/23 09:35:50;;;;;;;6.90;3.20;;;;;;;11.73;69.35;97474.13;231773;197;138573;-58
2024/02/23 09:40:53;;;;;;;5.60;3.40;;;;;;;11.67;69.59;97479.48;232000;201;137232;-58
2024/02/23 09:45:57;;;;;;;9.70;3.70;;;;;;;11.62;69.76;97492.70;231816;201;153948;-57
2024/02/23 09:51:01;;;;;;;6.20;3.20;;;;;;;11.59;70.21;97503.66;231698;197;138394;-58
2024/02/23 09:56:05;;;;;;;6.10;3.20;;;;;;;11.53;70.47;97513.06;231777;204;137541;-58
2024/02/23 10:01:11;;;;;;;6.80;2.80;;;;;;;11.51;70.71;97527.27;231621;198;153636;-58
2024/02/23 10:06:14;;;;;;;5.20;2.50;;;;;;;11.57;70.33;97534.06;231748;200;138324;-58
2024/02/23 10:11:19;;;;;;;4.80;2.00;;;;;;;11.61;70.05;97537.35;231738;199;137680;-57
2024/02/23 10:16:23;;;;;;;55.70;36.40;;;;;;;11.64;70.13;97538.38;231929;198;153891;-60
2024/02/23 10:21:26;;;;;;;282.80;233.30;;;;;;;11.72;70.50;97534.09;231696;198;139456;-58
2024/02/23 10:26:29;;;;;;;7.50;3.80;;;;;;;11.74;70.67;97534.78;231639;198;139334;-58
2024/02/23 10:31:38;;;;;;;3.70;2.50;;;;;;;11.71;70.19;97538.23;231837;202;153725;-58
2024/02/23 10:36:42;;;;;;;14.30;7.40;;;;;;;11.70;70.16;97534.61;231738;204;138687;-58
2024/02/23 10:42:09;;;;;;;18.00;13.00;;;;;;;11.71;70.57;97535.21;232070;202;138270;-58
2024/02/23 10:47:13;;;;;;;4.50;2.40;;;;;;;11.76;71.06;97542.98;232237;204;154016;-58
2024/02/23 10:52:17;;;;;;;4.00;2.50;;;;;;;11.78;70.34;97544.76;232040;201;138200;-57
2024/02/23 10:57:21;;;;;;;4.40;2.50;;;;;;;11.79;70.36;97537.75;232157;197;138341;-59
2024/02/23 11:02:29;;;;;;;5.00;2.60;;;;;;;11.86;70.29;97542.95;232093;198;155082;-60
2024/02/23 11:07:38;;;;;;;4.70;2.70;;;;;;;11.95;69.75;97544.61;232122;200;138542;-61
2024/02/23 11:12:41;;;;;;;5.80;2.80;;;;;;;12.03;69.46;97541.20;232037;204;137747;-60
2024/02/23 11:17:50;;;;;;;3.60;2.70;;;;;;;12.07;69.00;97548.48;232101;204;154006;-60
2024/02/23 11:22:54;;;;;;;5.50;3.10;;;;;;;12.00;68.82;97548.95;232158;204;137994;-60
2024/02/23 11:27:58;;;;;;;7.00;3.20;;;;;;;12.00;68.80;97555.18;232010;204;137809;-61
2024/02/23 11:33:01;;;;;;;6.20;3.30;;;;;;;11.98;68.77;97556.21;231950;197;153165;-61
2024/02/23 11:38:06;;;;;;;5.00;3.40;;;;;;;11.98;69.25;97556.79;231951;201;137558;-60
2024/02/23 11:43:10;;;;;;;4.10;3.00;;;;;;;12.01;69.17;97550.83;232043;198;138117;-61
2024/02/23 11:48:13;;;;;;;5.40;2.60;;;;;;;12.04;69.00;97557.48;232101;204;154648;-62
2024/02/23 11:53:19;;;;;;;5.30;2.40;;;;;;;12.15;68.55;97559.20;232103;201;138936;-61
2024/02/23 11:58:22;;;;;;;3.90;2.60;;;;;;;12.24;67.84;97562.05;232008;198;138270;-61
2024/02/23 12:03:26;;;;;;;3.60;2.30;;;;;;;12.27;67.96;97561.05;232004;201;154121;-58
2024/02/23 12:08:37;;;;;;;3.80;2.60;;;;;;;12.26;67.67;97561.84;231998;204;138078;-57
2024/02/23 12:13:41;;;;;;;3.10;2.10;;;;;;;12.30;67.35;97573.95;232033;204;138228;-58
2024/02/23 12:18:44;;;;;;;2.70;1.80;;;;;;;12.33;67.11;97575.27;232123;201;153812;-58
2024/02/23 12:23:49;;;;;;;148.10;116.90;;;;;;;12.33;66.92;97578.44;232081;201;138382;-56
2024/02/23 12:29:01;;;;;;;5.00;3.70;;;;;;;12.41;67.39;97583.92;231938;198;138682;-59
2024/02/23 12:34:04;;;;;;;3.70;2.20;;;;;;;12.43;66.95;97590.67;231865;201;153184;-58
2024/02/23 12:39:08;;;;;;;13.20;8.10;;;;;;;12.48;67.07;97590.70;232001;200;139091;-59
2024/02/23 12:44:11;;;;;;;3.50;2.30;;;;;;;12.49;67.05;97584.39;232036;201;139252;-59
2024/02/23 12:49:16;;;;;;;3.50;1.50;;;;;;;12.52;67.00;97596.42;232040;197;153481;-57
2024/02/23 12:54:19;;;;;;;4.20;1.80;;;;;;;12.54;66.55;97604.42;232027;201;143361;-58
2024/02/23 12:59:22;;;;;;;3.40;2.10;;;;;;;12.55;65.78;97607.02;232175;198;138240;-58
2024/02/23 13:04:26;;;;;;;5.20;2.30;;;;;;;12.54;66.11;97585.94;232158;198;155524;-59
2024/02/23 13:09:29;;;;;;;3.00;2.20;;;;;;;12.58;66.67;97594.30;232110;197;138468;-59
2024/02/23 13:14:32;;;;;;;2.90;1.90;;;;;;;12.57;65.78;97608.99;231988;198;138171;-59
2024/02/23 13:19:36;;;;;;;4.00;2.50;;;;;;;12.53;65.98;97618.55;231980;201;153622;-59
2024/02/23 13:24:40;;;;;;;3.00;2.30;;;;;;;12.49;66.46;97614.53;232127;204;137895;-58
2024/02/23 13:29:43;;;;;;;4.10;2.20;;;;;;;12.47;66.19;97612.41;232029;204;137803;-58
2024/02/23 13:34:46;;;;;;;4.70;2.00;;;;;;;12.42;66.84;97612.30;232179;204;153544;-58
2024/02/23 13:39:50;;;;;;;2.90;2.20;;;;;;;12.34;66.75;97620.02;231804;202;138583;-57
2024/02/23 13:44:53;;;;;;;3.70;2.30;;;;;;;12.32;65.99;97627.80;232044;204;137389;-58
2024/02/23 13:49:57;;;;;;;4.30;2.10;;;;;;;12.32;66.11;97637.77;232050;204;154428;-58
2024/02/23 13:55:00;;;;;;;2.80;1.70;;;;;;;12.30;66.18;97632.97;231881;204;138436;-59
2024/02/23 14:00:08;;;;;;;5.20;2.50;;;;;;;12.29;66.98;97626.63;231996;198;142156;-59
2024/02/23 14:05:14;;;;;;;5.70;2.20;;;;;;;12.35;67.88;97627.39;232132;204;153476;-57
2024/02/23 14:10:18;;;;;;;5.00;2.40;;;;;;;12.44;68.02;97638.98;232104;196;137576;-58
2024/02/23 14:15:21;;;;;;;4.40;2.40;;;;;;;12.49;67.29;97643.52;232158;201;137318;-58
2024/02/23 14:20:25;;;;;;;4.10;2.20;;;;;;;12.49;67.10;97650.40;232152;201;154533;-59
2024/02/23 14:25:28;;;;;;;5.50;2.50;;;;;;;12.49;67.71;97647.56;231900;201;138696;-58
2024/02/23 14:30:32;;;;;;;6.60;3.30;;;;;;;12.47;68.15;97645.13;232119;204;141550;-58
2024/02/23 14:35:35;;;;;;;6.00;2.60;;;;;;;12.46;68.76;97637.37;232180;204;154559;-57
2024/02/23 14:40:38;;;;;;;3.30;2.60;;;;;;;12.40;69.31;97647.91;232277;198;138072;-58
2024/02/23 14:45:41;;;;;;;4.70;2.70;;;;;;;12.33;69.42;97653.73;232050;205;137402;-58
2024/02/23 14:50:44;;;;;;;4.80;2.90;;;;;;;12.28;69.83;97656.08;232071;204;153247;-59
2024/02/23 14:55:48;;;;;;;4.40;3.10;;;;;;;12.26;70.17;97650.58;232108;197;138508;-58
2024/02/23 15:00:51;;;;;;;3.80;2.90;;;;;;;12.29;70.33;97654.21;231968;201;140027;-57
2024/02/23 15:05:55;;;;;;;3.80;3.00;;;;;;;12.33;70.21;97652.95;231994;204;155033;-60
2024/02/23 15:10:58;;;;;;;6.00;3.00;;;;;;;12.34;70.36;97655.41;232170;201;137461;-58
2024/02/23 15:16:02;;;;;;;4.30;2.70;;;;;;;12.34;70.41;97660.02;232037;204;140057;-59
2024/02/23 15:21:06;;;;;;;4.60;2.50;;;;;;;12.31;70.25;97660.98;232007;198;153405;-59
2024/02/23 15:26:10;;;;;;;7.50;2.90;;;;;;;12.27;70.32;97662.39;232177;200;137793;-58
2024/02/23 15:31:14;;;;;;;4.20;2.60;;;;;;;12.21;70.38;97659.92;232134;204;139096;-57
2024/02/23 15:36:17;;;;;;;4.00;2.60;;;;;;;12.17;70.43;97663.31;232109;204;154456;-58
2024/02/23 15:41:20;;;;;;;6.40;3.20;;;;;;;12.14;70.65;97666.99;231923;197;137972;-59
2024/02/23 15:46:25;;;;;;;5.00;3.30;;;;;;;12.14;70.68;97666.98;232267;201;138419;-58
2024/02/23 15:51:33;;;;;;;6.50;3.30;;;;;;;12.15;70.84;97674.56;232068;204;153399;-63
2024/02/23 15:56:57;;;;;;;6.90;4.00;;;;;;;12.11;71.04;97673.53;232060;204;137983;-64
2024/02/23 16:02:02;;;;;;;7.80;4.40;;;;;;;12.14;71.21;97672.02;231851;202;137091;-60
2024/02/23 16:07:06;;;;;;;5.40;4.30;;;;;;;12.14;71.11;97682.63;231985;201;152926;-70
2024/02/23 16:12:10;;;;;;;7.00;4.70;;;;;;;12.10;71.20;97693.61;232109;200;138383;-69
2024/02/23 16:17:13;;;;;;;7.90;4.50;;;;;;;12.01;71.34;97693.58;232196;201;137500;-68
2024/02/23 16:22:17;;;;;;;9.00;4.50;;;;;;;11.98;71.59;97701.27;232148;197;154254;-65
2024/02/23 16:27:20;;;;;;;10.60;5.30;;;;;;;12.04;71.62;97701.25;231936;202;137706;-66
2024/02/23 16:32:23;;;;;;;11.70;5.70;;;;;;;12.11;71.34;97699.98;232050;204;138154;-65
2024/02/23 16:37:29;;;;;;;13.30;5.40;;;;;;;12.15;70.99;97693.02;232149;204;153725;-65
2024/02/23 16:42:32;;;;;;;9.10;5.30;;;;;;;12.10;70.87;97697.52;232061;200;139882;-67
2024/02/23 16:47:35;;;;;;;9.60;5.30;;;;;;;12.04;70.91;97708.77;232080;204;140556;-69
2024/02/23 16:52:40;;;;;;;10.60;5.50;;;;;;;12.07;70.93;97709.76;232058;201;154110;-66
2024/02/23 16:57:43;;;;;;;12.90;6.20;;;;;;;12.03;70.98;97701.54;232079;204;138348;-68
2024/02/23 17:02:46;;;;;;;10.50;5.60;;;;;;;12.00;70.92;97691.02;232085;201;140652;-62
2024/02/23 17:07:50;;;;;;;9.80;6.00;;;;;;;11.91;70.82;97697.13;231834;199;153309;-63
2024/02/23 17:12:54;;;;;;;11.60;6.50;;;;;;;11.83;70.80;97687.48;232006;201;138210;-64
2024/02/23 17:17:58;;;;;;;12.00;7.10;;;;;;;11.77;70.87;97689.67;231929;201;139358;-63
2024/02/23 17:23:02;;;;;;;12.70;7.50;;;;;;;11.69;70.93;97705.64;232149;197;154199;-63
2024/02/23 17:28:05;;;;;;;14.30;8.00;;;;;;;11.61;71.12;97709.30;232082;197;137792;-63
2024/02/23 17:33:09;;;;;;;13.20;8.20;;;;;;;11.57;71.36;97703.30;231936;201;138634;-63
2024/02/23 17:38:12;;;;;;;19.50;9.40;;;;;;;11.49;71.41;97705.37;231947;201;153222;-64
2024/02/23 17:43:16;;;;;;;11.70;8.20;;;;;;;11.43;71.52;97706.45;231848;201;138893;-63
2024/02/23 17:48:20;;;;;;;9.10;5.60;;;;;;;11.40;71.67;97697.16;232260;198;137270;-63
2024/02/23 17:53:23;;;;;;;7.60;4.50;;;;;;;11.41;71.57;97702.55;232014;201;153904;-64
2024/02/23 17:58:27;;;;;;;7.60;5.10;;;;;;;11.44;71.47;97710.80;232149;197;137963;-64
2024/02/23 18:03:30;;;;;;;7.90;5.70;;;;;;;11.47;71.49;97708.46;231995;198;138209;-63
2024/02/23 18:08:36;;;;;;;7.30;5.20;;;;;;;11.46;71.48;97707.09;232049;201;153240;-61
2024/02/23 18:13:41;;;;;;;12.40;8.10;;;;;;;11.47;71.56;97698.65;231999;201;138565;-64
2024/02/23 18:18:45;;;;;;;20.10;12.50;;;;;;;11.52;71.71;97685.09;232089;204;138188;-60
2024/02/23 18:23:49;;;;;;;21.90;13.70;;;;;;;11.55;71.67;97683.59;232008;197;153781;-62
2024/02/23 18:28:52;;;;;;;25.40;15.20;;;;;;;11.53;71.59;97675.55;232120;196;137775;-62
2024/02/23 18:33:56;;;;;;;25.60;15.70;;;;;;;11.52;71.61;97678.17;232068;198;138378;-63
2024/02/23 18:39:00;;;;;;;28.90;17.80;;;;;;;11.48;71.84;97687.41;232031;205;153149;-62
2024/02/23 18:44:07;;;;;;;31.80;19.30;;;;;;;11.53;72.00;97692.43;232031;202;139152;-59
2024/02/23 18:49:10;;;;;;;32.90;20.80;;;;;;;11.57;71.99;97702.73;232064;204;138934;-62
2024/02/23 18:54:13;;;;;;;34.40;23.80;;;;;;;11.53;72.10;97699.77;231611;201;153336;-61
2024/02/23 18:59:17;;;;;;;37.10;24.30;;;;;;;11.49;72.16;97700.05;232037;198;137555;-60
2024/02/23 19:04:20;;;;;;;39.10;25.60;;;;;;;11.45;72.33;97708.56;231900;204;138615;-61
2024/02/23 19:09:23;;;;;;;34.40;22.10;;;;;;;11.45;72.52;97698.34;232036;201;154562;-61
2024/02/23 19:14:29;;;;;;;32.30;20.90;;;;;;;11.48;72.46;97698.23;231901;201;141849;-62
2024/02/23 19:19:33;;;;;;;33.40;25.20;;;;;;;11.48;72.28;97693.11;232073;204;138350;-59
2024/02/23 19:24:37;;;;;;;35.80;24.30;;;;;;;11.46;72.38;97697.90;232073;201;153166;-61
2024/02/23 19:29:40;;;;;;;33.40;24.40;;;;;;;11.46;72.29;97694.51;232078;204;138127;-60
2024/02/23 19:34:44;;;;;;;31.30;22.20;;;;;;;11.49;72.16;97683.38;232169;204;137850;-61
2024/02/23 19:39:47;;;;;;;29.10;20.60;;;;;;;11.46;71.97;97687.17;232067;197;153721;-58
2024/02/23 19:44:51;;;;;;;28.30;20.90;;;;;;;11.39;71.86;97690.09;232060;201;138568;-61
2024/02/23 19:49:54;;;;;;;27.30;18.30;;;;;;;11.33;71.97;97688.74;231988;197;138222;-60
2024/02/23 19:54:57;;;;;;;25.10;16.60;;;;;;;11.32;72.08;97688.95;232034;201;153808;-61
2024/02/23 20:00:03;;;;;;;27.20;18.50;;;;;;;11.36;72.01;97686.15;231707;204;139286;-62
2024/02/23 20:05:07;;;;;;;27.20;18.50;;;;;;;11.46;71.83;97677.62;232263;198;137528;-59
2024/02/23 20:10:16;;;;;;;25.60;18.60;;;;;;;11.46;71.44;97675.71;232088;202;152563;-56
2024/02/23 20:15:19;;;;;;;24.50;18.40;;;;;;;11.42;71.54;97671.98;232136;201;142659;-56
2024/02/23 20:20:22;;;;;;;24.70;16.40;;;;;;;11.41;71.48;97672.72;232061;204;138974;-56
2024/02/23 20:25:26;;;;;;;21.90;16.20;;;;;;;11.40;71.19;97669.62;232247;201;153511;-55
2024/02/23 20:30:29;;;;;;;25.80;17.10;;;;;;;11.41;71.23;97658.39;232170;204;138072;-56
2024/02/23 20:35:33;;;;;;;22.20;15.60;;;;;;;11.45;71.10;97660.17;232190;197;139057;-55
2024/02/23 20:40:36;;;;;;;26.20;17.60;;;;;;;11.45;70.93;97658.05;232213;201;154257;-54
2024/02/23 20:45:40;;;;;;;23.00;17.10;;;;;;;11.39;70.77;97653.88;232048;204;138461;-56
2024/02/23 20:50:43;;;;;;;26.60;17.80;;;;;;;11.35;70.57;97652.14;232190;197;138947;-56
2024/02/23 20:55:46;;;;;;;24.10;16.40;;;;;;;11.32;70.60;97648.82;232168;204;153321;-55
2024/02/23 21:00:52;;;;;;;23.20;16.50;;;;;;;11.34;70.50;97660.22;232128;201;138396;-56
2024/02/23 21:05:56;;;;;;;24.60;16.80;;;;;;;11.36;70.40;97672.08;232194;204;138978;-55
2024/02/23 21:10:59;;;;;;;20.80;15.30;;;;;;;11.33;70.16;97657.96;232442;200;153299;-56
2024/02/23 21:16:03;;;;;;;24.60;15.80;;;;;;;11.25;70.21;97647.16;231727;196;138723;-55
2024/02/23 21:21:06;;;;;;;23.70;15.40;;;;;;;11.19;70.32;97637.92;232199;204;140796;-54
2024/02/23 21:26:09;;;;;;;25.10;17.60;;;;;;;11.18;70.39;97637.27;232178;201;152944;-55
2024/02/23 21:31:13;;;;;;;24.50;17.40;;;;;;;11.20;70.32;97631.60;232130;201;138791;-55
2024/02/23 21:36:16;;;;;;;31.20;17.90;;;;;;;11.15;70.31;97628.13;232121;201;138860;-54
2024/02/23 21:41:19;;;;;;;28.30;18.30;;;;;;;11.10;70.39;97619.80;232096;201;153209;-56
2024/02/23 21:46:23;;;;;;;23.40;15.70;;;;;;;11.05;70.29;97619.58;232110;197;138925;-55
2024/02/23 21:51:26;;;;;;;23.40;14.40;;;;;;;10.99;70.32;97622.27;232166;197;138226;-56
2024/02/23 21:56:29;;;;;;;24.30;14.90;;;;;;;10.92;70.54;97623.52;232155;197;153919;-55
2024/02/23 22:01:34;;;;;;;24.10;15.40;;;;;;;10.84;70.57;97627.95;232157;204;138139;-55
2024/02/23 22:06:37;;;;;;;24.10;14.70;;;;;;;10.80;70.63;97624.42;232178;204;138423;-56
2024/02/23 22:11:41;;;;;;;23.40;16.00;;;;;;;10.78;70.66;97623.53;232084;201;153222;-52
2024/02/23 22:16:44;;;;;;;20.70;13.50;;;;;;;10.85;70.55;97618.98;232103;204;138561;-55
2024/02/23 22:21:47;;;;;;;16.30;10.80;;;;;;;10.93;69.86;97617.28;232199;204;138083;-56
2024/02/23 22:26:51;;;;;;;17.20;10.00;;;;;;;11.02;69.43;97614.69;231763;204;153494;-54
2024/02/23 22:31:55;;;;;;;14.50;9.50;;;;;;;11.11;68.80;97616.39;231796;201;138675;-55
2024/02/23 22:36:58;;;;;;;15.80;9.30;;;;;;;11.08;68.55;97624.16;232001;201;138173;-55
2024/02/23 22:42:02;;;;;;;14.90;10.10;;;;;;;11.01;68.92;97627.34;232192;197;153334;-54
2024/02/23 22:47:06;;;;;;;21.90;11.70;;;;;;;10.96;69.26;97611.89;232182;200;137776;-55
2024/02/23 22:52:10;;;;;;;23.90;13.60;;;;;;;10.88;69.45;97599.27;232112;197;138745;-56
2024/02/23 22:57:13;;;;;;;18.70;11.50;;;;;;;10.83;69.45;97595.74;232037;198;153563;-55
2024/02/23 23:02:17;;;;;;;17.10;11.50;;;;;;;10.78;69.41;97593.73;232067;200;137765;-58
2024/02/23 23:07:20;;;;;;;16.20;9.80;;;;;;;10.73;69.43;97585.16;232220;201;138780;-57
2024/02/23 23:12:24;;;;;;;14.40;9.60;;;;;;;10.73;69.50;97587.23;232061;204;153145;-58
2024/02/23 23:17:28;;;;;;;13.10;9.30;;;;;;;10.73;69.46;97583.28;231731;201;138688;-56
2024/02/23 23:22:32;;;;;;;16.80;10.30;;;;;;;10.77;69.35;97576.84;232111;201;138346;-57